createdAt,value
2018-01-25T00:00:41.731Z,79.51
2018-01-25T00:03:10.174Z,80.20
2018-01-25T00:05:38.274Z,81.67
2018-01-25T00:08:17.108Z,82.36
2018-01-25T00:10:45.230Z,82.95
2018-01-25T00:13:13.322Z,84.49
2018-01-25T00:15:41.434Z,87.57
2018-01-25T00:18:25.893Z,88.04
2018-01-25T00:20:54.002Z,88.90
2018-01-25T00:23:22.103Z,89.80
2018-01-25T00:25:50.224Z,90.49
2018-01-25T00:28:18.324Z,91.50
2018-01-25T00:30:46.436Z,90.99
2018-01-25T00:33:14.530Z,91.59
2018-01-25T00:35:43.537Z,91.58
2018-01-25T00:38:11.659Z,91.93
2018-01-25T00:40:39.777Z,91.83
2018-01-25T00:43:07.897Z,92.38
2018-01-25T00:45:35.982Z,91.98
2018-01-25T00:48:04.078Z,91.84
2018-01-25T00:50:32.196Z,92.04
2018-01-25T00:53:15.997Z,92.52
2018-01-25T00:55:44.111Z,91.97
2018-01-25T00:58:21.977Z,91.69
2018-01-25T01:00:50.095Z,91.99
2018-01-25T01:03:18.194Z,92.36
2018-01-25T01:05:52.386Z,92.68
2018-01-25T01:08:20.485Z,92.44
2018-01-25T01:10:52.507Z,92.42
2018-01-25T01:13:34.777Z,92.04
2018-01-25T01:16:02.878Z,91.95
2018-01-25T01:18:30.995Z,92.51
2018-01-25T01:20:59.085Z,92.12
2018-01-25T01:23:34.640Z,92.54
2018-01-25T01:26:02.743Z,92.13
2018-01-25T01:28:30.856Z,92.53
2018-01-25T01:30:58.964Z,92.53
2018-01-25T01:33:27.067Z,92.60
2018-01-25T01:35:55.172Z,92.79
2018-01-25T01:38:23.268Z,93.33
2018-01-25T01:40:59.731Z,92.51
2018-01-25T01:43:30.916Z,93.04
2018-01-25T01:45:59.014Z,92.50
2018-01-25T01:48:27.116Z,92.53
2018-01-25T01:50:55.213Z,92.61
2018-01-25T01:53:23.316Z,93.05
2018-01-25T01:55:51.417Z,92.69
2018-01-25T01:58:19.518Z,92.75
2018-01-25T02:00:47.633Z,91.52
2018-01-25T02:03:15.739Z,92.33
2018-01-25T02:05:43.822Z,93.01
2018-01-25T02:08:26.963Z,92.00
2018-01-25T02:10:55.049Z,92.61
2018-01-25T02:13:23.156Z,92.69
2018-01-25T02:15:51.259Z,92.81
2018-01-25T02:18:19.359Z,92.68
2018-01-25T02:20:48.890Z,92.42
2018-01-25T02:23:16.984Z,92.73
2018-01-25T02:25:45.073Z,92.32
2018-01-25T02:28:13.169Z,91.95
2018-01-25T02:30:41.288Z,91.85
2018-01-25T02:33:09.373Z,91.76
2018-01-25T02:35:37.476Z,91.75
2018-01-25T02:38:05.588Z,91.48
2018-01-25T02:40:33.669Z,90.67
2018-01-25T02:43:01.787Z,91.07
2018-01-25T02:45:29.880Z,91.60
2018-01-25T02:47:57.988Z,91.38
2018-01-25T02:50:26.152Z,91.73
2018-01-25T02:52:54.259Z,91.60
2018-01-25T02:55:22.385Z,91.62
2018-01-25T02:57:50.487Z,92.06
2018-01-25T03:00:18.592Z,91.87
2018-01-25T03:02:46.709Z,91.94
2018-01-25T03:05:14.797Z,91.80
2018-01-25T03:07:42.900Z,92.23
2018-01-25T03:10:10.997Z,91.98
2018-01-25T03:12:39.099Z,92.19
2018-01-25T03:15:07.193Z,92.28
2018-01-25T03:17:35.285Z,92.33
2018-01-25T03:20:15.776Z,91.92
2018-01-25T03:22:43.865Z,92.26
2018-01-25T03:25:11.994Z,91.73
2018-01-25T03:27:40.081Z,92.09
2018-01-25T03:30:09.113Z,92.38
2018-01-25T03:32:37.223Z,92.49
2018-01-25T03:35:05.312Z,92.45
2018-01-25T03:37:33.407Z,92.13
2018-01-25T03:40:01.495Z,92.32
2018-01-25T03:42:29.610Z,92.07
2018-01-25T03:44:57.702Z,91.84
2018-01-25T03:47:25.813Z,91.64
2018-01-25T03:49:53.902Z,91.75
2018-01-25T03:52:22.012Z,91.79
2018-01-25T03:54:50.106Z,91.76
2018-01-25T03:57:18.213Z,92.16
2018-01-25T03:59:46.294Z,92.32
2018-01-25T04:02:14.412Z,92.29
2018-01-25T04:04:51.173Z,92.21
2018-01-25T04:07:19.301Z,92.63
2018-01-25T04:09:47.357Z,92.63
2018-01-25T04:12:15.475Z,92.40
2018-01-25T04:14:43.570Z,92.49
2018-01-25T04:17:11.663Z,92.58
2018-01-25T04:19:43.557Z,92.57
2018-01-25T04:22:11.637Z,92.02
2018-01-25T04:24:39.733Z,92.56
2018-01-25T04:27:20.630Z,92.50
2018-01-25T04:29:48.729Z,92.46
2018-01-25T04:32:16.842Z,92.96
2018-01-25T04:34:44.946Z,92.72
2018-01-25T04:37:13.029Z,92.89
2018-01-25T04:39:41.132Z,92.62
2018-01-25T04:42:09.251Z,92.88
2018-01-25T04:44:38.287Z,92.77
2018-01-25T04:47:06.382Z,92.63
2018-01-25T04:49:34.469Z,92.78
2018-01-25T04:52:02.567Z,93.24
2018-01-25T04:54:38.375Z,92.51
2018-01-25T04:57:06.466Z,92.42
2018-01-25T04:59:34.565Z,93.00
2018-01-25T05:02:02.672Z,93.08
2018-01-25T05:04:30.772Z,93.36
2018-01-25T05:06:58.892Z,92.70
2018-01-25T05:09:27.918Z,93.33
2018-01-25T05:11:57.147Z,92.62
2018-01-25T05:14:25.263Z,93.01
2018-01-25T05:16:55.173Z,92.79
2018-01-25T05:19:23.280Z,92.47
2018-01-25T05:21:51.374Z,92.78
2018-01-25T05:24:19.479Z,92.66
2018-01-25T05:26:47.602Z,92.15
2018-01-25T05:29:15.681Z,92.05
2018-01-25T05:31:43.787Z,92.33
2018-01-25T05:34:16.312Z,92.19
2018-01-25T05:36:44.428Z,92.08
2018-01-25T05:39:12.528Z,92.21
2018-01-25T05:41:40.609Z,92.02
2018-01-25T05:47:10.220Z,90.76
2018-01-25T05:49:38.324Z,90.91
2018-01-25T05:52:06.431Z,85.94
2018-01-25T05:54:34.537Z,87.27
2018-01-25T05:57:02.626Z,89.25
2018-01-25T05:59:30.728Z,89.93
2018-01-25T06:01:58.822Z,89.68
2018-01-25T06:04:26.925Z,90.04
2018-01-25T06:06:55.009Z,90.31
2018-01-25T06:09:23.103Z,89.69
2018-01-25T06:11:51.219Z,90.04
2018-01-25T06:14:19.316Z,89.86
2018-01-25T06:16:47.427Z,90.09
2018-01-25T06:19:15.596Z,90.16
2018-01-25T06:21:43.698Z,90.09
2018-01-25T06:24:11.807Z,89.48
2018-01-25T06:26:39.945Z,90.05
2018-01-25T06:29:08.016Z,90.07
2018-01-25T06:31:36.116Z,89.93
2018-01-25T06:34:04.238Z,89.98
2018-01-25T06:36:32.340Z,89.53
2018-01-25T06:39:00.439Z,89.11
2018-01-25T06:41:40.603Z,89.66
2018-01-25T06:44:12.075Z,90.01
2018-01-25T06:46:42.105Z,90.15
2018-01-25T06:49:13.859Z,90.04
2018-01-25T06:51:41.963Z,90.49
2018-01-25T06:54:10.050Z,90.09
2018-01-25T06:56:40.139Z,90.14
2018-01-25T06:59:08.232Z,90.41
2018-01-25T07:01:36.335Z,90.36
2018-01-25T07:04:04.435Z,90.41
2018-01-25T07:06:32.525Z,90.30
2018-01-25T07:09:00.626Z,90.28
2018-01-25T07:11:28.713Z,90.16
2018-01-25T07:13:56.811Z,90.70
2018-01-25T07:16:24.910Z,90.69
2018-01-25T07:18:52.998Z,90.52
2018-01-25T07:21:21.111Z,91.16
2018-01-25T07:23:49.238Z,90.88
2018-01-25T07:26:17.341Z,90.76
2018-01-25T07:28:45.439Z,91.07
2018-01-25T07:31:18.634Z,90.94
2018-01-25T07:33:46.744Z,91.06
2018-01-25T07:36:14.875Z,90.97
2018-01-25T07:38:42.948Z,91.14
2018-01-25T07:41:11.055Z,91.45
2018-01-25T07:43:39.156Z,90.92
2018-01-25T07:46:07.291Z,90.88
2018-01-25T07:48:35.369Z,90.87
2018-01-25T07:51:03.472Z,91.26
2018-01-25T07:53:31.576Z,91.28
2018-01-25T07:55:59.662Z,91.52
2018-01-25T07:58:27.772Z,91.21
2018-01-25T08:00:55.865Z,91.35
2018-01-25T08:03:23.968Z,91.23
2018-01-25T08:05:52.066Z,91.05
2018-01-25T08:08:22.061Z,91.38
2018-01-25T08:10:50.179Z,91.18
2018-01-25T08:16:24.817Z,91.68
2018-01-25T08:18:52.994Z,91.83
2018-01-25T08:21:21.214Z,91.78
2018-01-25T08:23:49.452Z,91.78
2018-01-25T08:26:17.658Z,91.63
2018-01-25T08:28:45.966Z,91.49
2018-01-25T08:31:14.239Z,91.51
2018-01-25T08:33:42.410Z,91.36
2018-01-25T08:36:10.648Z,91.43
2018-01-25T08:38:38.932Z,90.93
2018-01-25T08:41:11.491Z,91.20
2018-01-25T08:43:39.664Z,90.98
2018-01-25T08:46:07.962Z,91.21
2018-01-25T08:48:36.205Z,90.86
2018-01-25T08:51:05.055Z,90.67
2018-01-25T08:53:33.480Z,90.39
2018-01-25T08:56:01.678Z,90.58
2018-01-25T08:58:29.976Z,90.35
2018-01-25T09:00:58.195Z,90.64
2018-01-25T09:03:26.460Z,90.07
2018-01-25T09:05:55.638Z,89.95
2018-01-25T09:08:23.916Z,90.16
2018-01-25T09:10:52.164Z,90.00
2018-01-25T09:13:20.376Z,89.62
2018-01-25T09:15:48.797Z,89.92
2018-01-25T09:18:17.082Z,90.04
2018-01-25T09:20:45.450Z,90.31
2018-01-25T09:23:13.652Z,90.12
2018-01-25T09:25:42.019Z,90.08
2018-01-25T09:28:10.250Z,90.37
2018-01-25T09:30:38.519Z,90.29
2018-01-25T09:33:06.674Z,90.30
2018-01-25T09:35:34.834Z,90.47
2018-01-25T09:39:06.133Z,90.45
2018-01-25T09:41:45.839Z,90.76
2018-01-25T09:44:23.714Z,90.46
2018-01-25T09:46:51.997Z,90.22
2018-01-25T09:49:21.523Z,90.40
2018-01-25T09:51:51.702Z,90.66
2018-01-25T09:54:20.407Z,90.40
2018-01-25T09:56:48.848Z,90.40
2018-01-25T09:59:17.336Z,90.16
2018-01-25T10:01:45.674Z,89.86
2018-01-25T10:04:17.618Z,90.08
2018-01-25T10:06:45.898Z,89.69
2018-01-25T10:09:14.486Z,89.53
2018-01-25T10:11:42.780Z,89.06
2018-01-25T10:14:10.991Z,89.31
2018-01-25T10:16:39.257Z,89.20
2018-01-25T10:19:07.409Z,89.08
2018-01-25T10:21:35.655Z,88.81
2018-01-25T10:24:04.026Z,88.76
2018-01-25T10:26:35.685Z,88.64
2018-01-25T10:29:04.858Z,88.45
2018-01-25T10:31:33.051Z,88.32
2018-01-25T10:34:01.306Z,88.30
2018-01-25T10:36:29.518Z,87.82
2018-01-25T10:38:57.802Z,87.49
2018-01-25T10:41:26.003Z,87.42
2018-01-25T10:43:55.499Z,87.08
2018-01-25T10:46:23.769Z,87.40
2018-01-25T10:48:52.026Z,86.84
2018-01-25T10:51:20.584Z,86.64
2018-01-25T10:53:48.917Z,86.15
2018-01-25T10:56:17.277Z,86.08
2018-01-25T10:58:45.549Z,85.36
2018-01-25T11:01:21.221Z,85.19
2018-01-25T11:03:49.635Z,84.62
2018-01-25T11:06:17.917Z,85.18
2018-01-25T11:08:46.474Z,84.62
2018-01-25T11:11:15.857Z,83.98
2018-01-25T11:13:44.793Z,84.36
2018-01-25T11:16:13.088Z,83.10
2018-01-25T11:18:41.388Z,84.26
2018-01-25T11:23:52.644Z,83.32
2018-01-25T11:26:20.923Z,83.00
2018-01-25T11:28:49.123Z,83.61
2018-01-25T11:31:18.696Z,83.02
2018-01-25T11:33:51.158Z,82.92
2018-01-25T11:36:19.385Z,82.96
2018-01-25T11:38:49.720Z,82.39
2018-01-25T11:43:56.697Z,82.21
2018-01-25T11:46:24.964Z,81.45
2018-01-25T11:51:28.000Z,81.15
2018-01-25T11:53:57.856Z,80.84
2018-01-25T11:56:29.409Z,80.46
2018-01-25T11:58:57.718Z,80.23
2018-01-25T12:01:26.433Z,80.58
2018-01-25T12:03:57.395Z,79.60
2018-01-25T12:06:26.945Z,80.44
2018-01-25T12:08:55.546Z,79.81
2018-01-25T12:11:24.067Z,79.93
2018-01-25T12:16:31.754Z,79.48
2018-01-25T12:19:01.158Z,80.09
2018-01-25T12:24:10.594Z,79.94
2018-01-25T12:26:39.054Z,80.46
2018-01-25T12:29:09.232Z,79.48
2018-01-25T12:31:38.541Z,78.55
2018-01-25T12:34:08.946Z,79.17
2018-01-25T12:36:42.768Z,79.96
2018-01-25T12:39:12.000Z,78.66
2018-01-25T12:41:44.621Z,78.51
2018-01-25T12:44:15.105Z,79.45
2018-01-25T12:46:44.429Z,79.06
2018-01-25T12:49:13.730Z,78.51
2018-01-25T12:51:52.656Z,79.02
2018-01-25T12:54:25.785Z,79.11
2018-01-25T12:56:59.973Z,78.38
2018-01-25T12:59:32.510Z,78.93
2018-01-25T13:02:01.942Z,78.40
2018-01-25T13:04:30.746Z,78.76
2018-01-25T13:07:05.152Z,79.00
2018-01-25T13:09:41.840Z,78.94
2018-01-25T13:12:11.996Z,78.42
2018-01-25T13:14:40.294Z,78.76
2018-01-25T13:17:08.574Z,78.31
2018-01-25T13:19:39.100Z,78.96
2018-01-25T13:22:13.625Z,78.61
2018-01-25T13:24:41.928Z,78.42
2018-01-25T13:27:10.199Z,78.43
2018-01-25T13:29:38.467Z,78.48
2018-01-25T13:32:06.884Z,78.50
2018-01-25T13:34:35.098Z,78.61
2018-01-25T13:37:05.380Z,78.46
2018-01-25T13:39:33.724Z,79.29
2018-01-25T13:42:06.400Z,79.02
2018-01-25T13:44:34.950Z,78.56
2018-01-25T13:47:10.553Z,78.80
2018-01-25T13:49:39.130Z,78.91
2018-01-25T13:52:07.480Z,79.27
2018-01-25T13:54:36.673Z,78.83
2018-01-25T13:57:24.516Z,79.54
2018-01-25T13:59:58.386Z,79.51
2018-01-25T14:02:26.656Z,79.27
2018-01-25T14:04:54.958Z,79.25
2018-01-25T14:07:23.228Z,79.83
2018-01-25T14:09:51.535Z,79.69
2018-01-25T14:12:21.576Z,79.63
2018-01-25T14:14:49.927Z,79.56
2018-01-25T14:17:18.244Z,79.46
2018-01-25T14:19:46.522Z,79.86
2018-01-25T14:22:18.458Z,79.55
2018-01-25T14:24:46.749Z,79.52
2018-01-25T14:27:14.936Z,78.76
2018-01-25T14:29:43.240Z,79.34
2018-01-25T14:32:11.380Z,78.94
2018-01-25T14:34:39.666Z,79.68
2018-01-25T14:37:11.206Z,79.77
2018-01-25T14:39:41.034Z,79.22
2018-01-25T14:42:09.714Z,79.32
2018-01-25T14:44:37.959Z,79.29
2018-01-25T14:47:06.243Z,79.60
2018-01-25T14:49:34.440Z,79.77
2018-01-25T14:52:03.520Z,79.94
2018-01-25T14:54:32.695Z,79.84
2018-01-25T14:57:00.894Z,79.44
2018-01-25T14:59:29.122Z,79.93
2018-01-25T15:01:57.436Z,80.20
2018-01-25T15:04:25.959Z,80.96
2018-01-25T15:06:54.198Z,81.65
2018-01-25T15:09:22.377Z,82.96
2018-01-25T15:11:50.573Z,84.39
2018-01-25T15:14:24.394Z,84.74
2018-01-25T15:16:52.679Z,84.62
2018-01-25T15:19:21.033Z,85.49
2018-01-25T15:21:49.203Z,84.57
2018-01-25T15:24:17.460Z,83.67
2018-01-25T15:26:50.586Z,84.70
2018-01-25T15:29:19.960Z,85.64
2018-01-25T15:31:48.179Z,85.99
2018-01-25T15:34:17.764Z,86.82
2018-01-25T15:36:46.034Z,87.19
2018-01-25T15:39:14.227Z,87.08
2018-01-25T15:41:42.510Z,85.62
2018-01-25T15:44:10.702Z,83.54
2018-01-25T15:46:48.214Z,83.32
2018-01-25T15:49:19.608Z,83.92
2018-01-25T15:51:48.803Z,84.79
2018-01-25T15:54:18.900Z,83.95
2018-01-25T15:56:47.560Z,84.43
2018-01-25T15:59:19.298Z,84.12
2018-01-25T16:01:47.402Z,83.95
2018-01-25T16:04:15.523Z,83.67
2018-01-25T16:06:45.134Z,82.90
2018-01-25T16:09:13.792Z,83.21
2018-01-25T16:11:41.907Z,83.58
2018-01-25T16:14:10.015Z,84.00
2018-01-25T16:16:38.197Z,84.19
2018-01-25T16:19:12.059Z,83.29
2018-01-25T16:21:40.159Z,84.46
2018-01-25T16:24:10.227Z,85.31
2018-01-25T16:26:38.344Z,84.35
2018-01-25T16:29:06.449Z,82.98
2018-01-25T16:31:34.578Z,83.81
2018-01-25T16:34:02.869Z,84.35
2018-01-25T16:36:45.224Z,85.29
2018-01-25T16:39:13.329Z,86.45
2018-01-25T16:41:41.465Z,86.51
2018-01-25T16:44:09.578Z,87.24
2018-01-25T16:46:43.348Z,86.40
2018-01-25T16:49:22.736Z,86.39
2018-01-25T16:52:02.212Z,85.67
2018-01-25T16:54:30.312Z,85.89
2018-01-25T16:56:58.402Z,85.93
2018-01-25T16:59:26.516Z,85.76
2018-01-25T17:02:02.774Z,85.87
2018-01-25T17:04:44.040Z,84.99
2018-01-25T17:07:12.151Z,85.09
2018-01-25T17:09:40.253Z,85.14
2018-01-25T17:12:08.356Z,84.40
2018-01-25T17:14:39.992Z,84.67
2018-01-25T17:17:14.388Z,84.23
2018-01-25T17:19:46.171Z,85.15
2018-01-25T17:22:14.279Z,85.45
2018-01-25T17:24:43.311Z,85.84
2018-01-25T17:27:11.891Z,86.10
2018-01-25T17:29:42.972Z,85.85
2018-01-25T17:32:11.096Z,85.28
2018-01-25T17:34:41.127Z,85.84
2018-01-25T17:37:10.148Z,85.73
2018-01-25T17:39:39.222Z,86.31
2018-01-25T17:42:10.365Z,86.50
2018-01-25T17:44:38.449Z,87.01
2018-01-25T17:47:08.539Z,86.87
2018-01-25T17:49:36.633Z,87.35
2018-01-25T17:52:08.870Z,86.96
2018-01-25T17:54:36.965Z,87.25
2018-01-25T17:57:05.077Z,87.07
2018-01-25T17:59:35.195Z,87.02
2018-01-25T18:02:05.265Z,87.81
2018-01-25T18:04:33.353Z,88.19
2018-01-25T18:07:01.468Z,88.14
2018-01-25T18:09:33.195Z,88.70
2018-01-25T18:12:01.289Z,88.12
2018-01-25T18:14:29.415Z,88.81
2018-01-25T18:16:57.511Z,89.06
2018-01-25T18:19:25.623Z,89.70
2018-01-25T18:21:54.651Z,89.52
2018-01-25T18:24:22.767Z,89.50
2018-01-25T18:26:50.853Z,89.93
2018-01-25T18:29:22.481Z,90.04
2018-01-25T18:31:50.577Z,90.37
2018-01-25T18:34:25.534Z,90.33
2018-01-25T18:36:54.550Z,90.75
2018-01-25T18:39:22.646Z,90.56
2018-01-25T18:41:50.752Z,90.78
2018-01-25T18:44:19.806Z,90.47
2018-01-25T18:46:47.907Z,90.77
2018-01-25T18:49:19.623Z,90.94
2018-01-25T18:51:47.717Z,90.77
2018-01-25T18:54:15.833Z,90.59
2018-01-25T18:56:54.247Z,90.86
2018-01-25T18:59:23.278Z,90.51
2018-01-25T19:01:51.384Z,90.59
2018-01-25T19:04:19.496Z,90.65
2018-01-25T19:06:47.606Z,90.63
2018-01-25T19:09:15.723Z,90.87
2018-01-25T19:11:49.631Z,91.01
2018-01-25T19:14:17.724Z,91.00
2018-01-25T19:16:45.833Z,91.08
2018-01-25T19:19:13.931Z,90.82
2018-01-25T19:21:42.027Z,90.95
2018-01-25T19:24:10.133Z,90.83
2018-01-25T19:26:38.247Z,90.41
2018-01-25T19:29:06.334Z,90.83
2018-01-25T19:31:36.428Z,90.69
2018-01-25T19:34:04.525Z,90.65
2018-01-25T19:36:32.625Z,91.15
2018-01-25T19:39:00.739Z,91.08
2018-01-25T19:41:28.830Z,91.07
2018-01-25T19:44:04.426Z,91.03
2018-01-25T19:46:32.513Z,91.67
2018-01-25T19:49:02.548Z,91.59
2018-01-25T19:51:31.554Z,91.45
2018-01-25T19:53:59.662Z,91.42
2018-01-25T19:56:27.736Z,91.32
2018-01-25T19:59:00.249Z,91.16
2018-01-25T20:01:28.420Z,91.52
2018-01-25T20:03:56.507Z,91.48
2018-01-25T20:06:28.143Z,91.99
2018-01-25T20:08:56.225Z,91.84
2018-01-25T20:11:24.330Z,91.64
2018-01-25T20:13:57.358Z,91.53
2018-01-25T20:16:25.468Z,91.71
2018-01-25T20:18:53.553Z,91.60
2018-01-25T20:21:21.664Z,91.83
2018-01-25T20:23:49.762Z,91.89
2018-01-25T20:26:17.857Z,91.40
2018-01-25T20:28:49.080Z,91.96
2018-01-25T20:31:17.240Z,92.06
2018-01-25T20:33:46.374Z,91.80
2018-01-25T20:36:14.461Z,91.77
2018-01-25T20:38:43.477Z,91.31
2018-01-25T20:41:11.660Z,91.67
2018-01-25T20:43:39.738Z,91.94
2018-01-25T20:46:14.983Z,91.71
2018-01-25T20:48:43.084Z,91.65
2018-01-25T20:51:11.257Z,91.64
2018-01-25T20:53:39.345Z,91.52
2018-01-25T20:56:07.456Z,91.75
2018-01-25T20:58:38.738Z,91.95
2018-01-25T21:01:06.839Z,92.29
2018-01-25T21:03:34.952Z,92.06
2018-01-25T21:06:04.979Z,91.74
2018-01-25T21:08:33.099Z,92.00
2018-01-25T21:11:01.201Z,91.95
2018-01-25T21:13:35.739Z,91.83
2018-01-25T21:16:05.754Z,91.82
2018-01-25T21:18:45.327Z,92.22
2018-01-25T21:21:13.435Z,92.29
2018-01-25T21:23:41.531Z,92.24
2018-01-25T21:26:15.501Z,92.06
2018-01-25T21:28:43.612Z,92.60
2018-01-25T21:31:15.834Z,92.60
2018-01-25T21:33:43.949Z,92.63
2018-01-25T21:36:26.505Z,92.37
2018-01-25T21:38:54.676Z,92.92
2018-01-25T21:41:33.011Z,92.86
2018-01-25T21:44:01.211Z,92.79
2018-01-25T21:46:29.378Z,92.83
2018-01-25T21:49:08.928Z,92.60
2018-01-25T21:51:37.082Z,92.68
2018-01-25T21:54:05.209Z,92.49
2018-01-25T21:56:37.091Z,92.52
2018-01-25T21:59:05.226Z,92.96
2018-01-25T22:01:33.352Z,92.70
2018-01-25T22:04:01.569Z,92.85
2018-01-25T22:06:29.704Z,92.87
2018-01-25T22:08:57.991Z,93.16
2018-01-25T22:11:26.166Z,92.99
2018-01-25T22:14:04.256Z,93.70
2018-01-25T22:16:32.430Z,93.36
2018-01-25T22:19:00.550Z,93.34
2018-01-25T22:21:28.776Z,93.19
2018-01-25T22:23:56.920Z,93.10
2018-01-25T22:26:25.060Z,93.10
2018-01-25T22:28:53.184Z,92.83
2018-01-25T22:31:21.331Z,92.84
2018-01-25T22:33:49.473Z,93.36
2018-01-25T22:36:17.624Z,93.15
2018-01-25T22:38:45.754Z,93.44
2018-01-25T22:41:14.516Z,93.69
2018-01-25T22:43:48.072Z,93.42
2018-01-25T22:46:16.188Z,93.77
2018-01-25T22:48:44.306Z,93.37
2018-01-25T22:51:12.775Z,93.86
2018-01-25T22:53:40.995Z,93.95
2018-01-25T22:56:09.153Z,93.79
2018-01-25T22:58:37.300Z,93.26
2018-01-25T23:01:05.473Z,93.62
2018-01-25T23:03:33.650Z,93.40
2018-01-25T23:06:01.933Z,93.27
2018-01-25T23:08:30.085Z,92.90
2018-01-25T23:10:58.264Z,92.81
2018-01-25T23:13:26.434Z,92.71
2018-01-25T23:15:54.666Z,92.74
2018-01-25T23:18:22.856Z,92.89
2018-01-25T23:20:54.782Z,92.98
2018-01-25T23:23:22.899Z,93.07
2018-01-25T23:25:51.015Z,93.20
2018-01-25T23:28:19.131Z,93.03
2018-01-25T23:30:47.221Z,92.80
2018-01-25T23:33:15.359Z,92.90
2018-01-25T23:35:43.474Z,92.79
2018-01-25T23:38:36.791Z,92.20
2018-01-25T23:41:04.901Z,91.88
2018-01-25T23:43:33.007Z,91.92
2018-01-25T23:46:01.115Z,92.03
2018-01-25T23:48:29.230Z,91.84
2018-01-25T23:51:12.439Z,91.63
2018-01-25T23:53:40.561Z,92.03
2018-01-25T23:56:08.667Z,91.48
2018-01-25T23:58:36.763Z,91.62
